sensor_id;sensor_type;location;lat;lon;timestamp;temperature;humidity
18291;DHT22;9271;48.590;8.866;2023-04-20T00:02:20;5.00;99.80
18291;DHT22;9271;48.590;8.866;2023-04-20T00:04:47;5.00;99.30
18291;DHT22;9271;48.590;8.866;2023-04-20T00:07:13;4.90;99.70
18291;DHT22;9271;48.590;8.866;2023-04-20T00:09:42;4.70;99.90
18291;DHT22;9271;48.590;8.866;2023-04-20T00:12:09;4.40;99.90
18291;DHT22;9271;48.590;8.866;2023-04-20T00:14:35;4.10;99.90
18291;DHT22;9271;48.590;8.866;2023-04-20T00:17:02;4.00;99.90
18291;DHT22;9271;48.590;8.866;2023-04-20T00:19:29;4.00;99.90
18291;DHT22;9271;48.590;8.866;2023-04-20T00:21:57;4.30;99.90
18291;DHT22;9271;48.590;8.866;2023-04-20T00:24:24;4.80;99.90
18291;DHT22;9271;48.590;8.866;2023-04-20T00:26:52;5.10;99.90
18291;DHT22;9271;48.590;8.866;2023-04-20T00:29:19;5.30;99.00
18291;DHT22;9271;48.590;8.866;2023-04-20T00:31:46;5.40;98.60
18291;DHT22;9271;48.590;8.866;2023-04-20T00:34:12;5.60;97.70
18291;DHT22;9271;48.590;8.866;2023-04-20T00:36:40;5.70;97.40
18291;DHT22;9271;48.590;8.866;2023-04-20T00:39:07;5.50;97.60
18291;DHT22;9271;48.590;8.866;2023-04-20T00:41:33;5.30;98.20
18291;DHT22;9271;48.590;8.866;2023-04-20T00:44:01;5.00;99.00
18291;DHT22;9271;48.590;8.866;2023-04-20T00:46:28;5.10;99.10
18291;DHT22;9271;48.590;8.866;2023-04-20T00:48:55;5.20;99.20
18291;DHT22;9271;48.590;8.866;2023-04-20T00:51:22;5.20;99.20
18291;DHT22;9271;48.590;8.866;2023-04-20T00:53:49;5.20;99.00
18291;DHT22;9271;48.590;8.866;2023-04-20T00:56:15;5.10;99.10
18291;DHT22;9271;48.590;8.866;2023-04-20T00:58:43;5.10;99.30
18291;DHT22;9271;48.590;8.866;2023-04-20T01:01:12;5.00;99.30
18291;DHT22;9271;48.590;8.866;2023-04-20T01:03:42;5.00;99.20
18291;DHT22;9271;48.590;8.866;2023-04-20T01:06:08;4.90;99.50
18291;DHT22;9271;48.590;8.866;2023-04-20T01:08:35;4.80;99.70
18291;DHT22;9271;48.590;8.866;2023-04-20T01:11:10;4.80;99.50
18291;DHT22;9271;48.590;8.866;2023-04-20T01:13:36;4.80;99.40
18291;DHT22;9271;48.590;8.866;2023-04-20T01:16:04;4.80;99.60
18291;DHT22;9271;48.590;8.866;2023-04-20T01:18:41;4.70;99.40
18291;DHT22;9271;48.590;8.866;2023-04-20T01:21:08;4.60;99.70
18291;DHT22;9271;48.590;8.866;2023-04-20T01:23:36;4.60;99.90
18291;DHT22;9271;48.590;8.866;2023-04-20T01:26:05;4.60;99.70
18291;DHT22;9271;48.590;8.866;2023-04-20T01:28:32;4.60;99.80
18291;DHT22;9271;48.590;8.866;2023-04-20T01:30:59;4.60;99.80
18291;DHT22;9271;48.590;8.866;2023-04-20T01:33:25;4.60;99.80
18291;DHT22;9271;48.590;8.866;2023-04-20T01:35:52;4.40;99.90
18291;DHT22;9271;48.590;8.866;2023-04-20T01:38:20;4.40;99.90
18291;DHT22;9271;48.590;8.866;2023-04-20T01:40:49;4.50;99.90
18291;DHT22;9271;48.590;8.866;2023-04-20T01:43:17;4.50;99.90
18291;DHT22;9271;48.590;8.866;2023-04-20T01:45:43;4.50;99.90
18291;DHT22;9271;48.590;8.866;2023-04-20T01:48:10;4.30;99.90
18291;DHT22;9271;48.590;8.866;2023-04-20T01:50:37;4.30;99.90
18291;DHT22;9271;48.590;8.866;2023-04-20T01:53:03;4.20;99.90
18291;DHT22;9271;48.590;8.866;2023-04-20T01:55:30;4.20;99.90
18291;DHT22;9271;48.590;8.866;2023-04-20T01:57:58;4.20;99.90
18291;DHT22;9271;48.590;8.866;2023-04-20T02:00:25;4.10;99.90
18291;DHT22;9271;48.590;8.866;2023-04-20T02:02:51;4.00;99.90
18291;DHT22;9271;48.590;8.866;2023-04-20T02:05:18;4.20;99.90
18291;DHT22;9271;48.590;8.866;2023-04-20T02:07:45;4.40;99.80
18291;DHT22;9271;48.590;8.866;2023-04-20T02:10:11;4.20;99.90
18291;DHT22;9271;48.590;8.866;2023-04-20T02:12:38;4.10;99.90
18291;DHT22;9271;48.590;8.866;2023-04-20T02:15:07;4.10;99.90
18291;DHT22;9271;48.590;8.866;2023-04-20T02:17:34;4.20;99.90
18291;DHT22;9271;48.590;8.866;2023-04-20T02:20:02;4.00;99.90
18291;DHT22;9271;48.590;8.866;2023-04-20T02:22:30;3.90;99.90
18291;DHT22;9271;48.590;8.866;2023-04-20T02:24:59;3.80;99.90
18291;DHT22;9271;48.590;8.866;2023-04-20T02:27:26;3.70;99.90
18291;DHT22;9271;48.590;8.866;2023-04-20T02:29:53;3.80;99.90
18291;DHT22;9271;48.590;8.866;2023-04-20T02:32:21;3.90;99.90
18291;DHT22;9271;48.590;8.866;2023-04-20T02:34:47;3.90;99.90
18291;DHT22;9271;48.590;8.866;2023-04-20T02:37:14;3.80;99.90
18291;DHT22;9271;48.590;8.866;2023-04-20T02:39:41;3.70;99.90
18291;DHT22;9271;48.590;8.866;2023-04-20T02:42:07;3.80;99.90
18291;DHT22;9271;48.590;8.866;2023-04-20T02:44:34;3.80;99.90
18291;DHT22;9271;48.590;8.866;2023-04-20T02:47:01;3.80;99.90
18291;DHT22;9271;48.590;8.866;2023-04-20T02:49:29;3.80;99.90
18291;DHT22;9271;48.590;8.866;2023-04-20T02:51:55;3.80;99.90
18291;DHT22;9271;48.590;8.866;2023-04-20T02:54:22;3.70;99.90
18291;DHT22;9271;48.590;8.866;2023-04-20T02:56:48;3.80;99.90
18291;DHT22;9271;48.590;8.866;2023-04-20T02:59:15;3.70;99.90
18291;DHT22;9271;48.590;8.866;2023-04-20T03:01:42;3.80;99.90
18291;DHT22;9271;48.590;8.866;2023-04-20T03:04:08;3.80;99.90
18291;DHT22;9271;48.590;8.866;2023-04-20T03:06:36;3.80;99.90
18291;DHT22;9271;48.590;8.866;2023-04-20T03:09:04;3.80;99.90
18291;DHT22;9271;48.590;8.866;2023-04-20T03:11:31;3.80;99.90
18291;DHT22;9271;48.590;8.866;2023-04-20T03:13:58;3.80;99.90
18291;DHT22;9271;48.590;8.866;2023-04-20T03:16:25;3.70;99.90
18291;DHT22;9271;48.590;8.866;2023-04-20T03:18:51;3.80;99.90
18291;DHT22;9271;48.590;8.866;2023-04-20T03:21:18;3.70;99.90
18291;DHT22;9271;48.590;8.866;2023-04-20T03:23:46;3.90;99.90
18291;DHT22;9271;48.590;8.866;2023-04-20T03:26:13;3.80;99.90
18291;DHT22;9271;48.590;8.866;2023-04-20T03:28:40;3.80;99.90
18291;DHT22;9271;48.590;8.866;2023-04-20T03:31:07;3.80;99.90
18291;DHT22;9271;48.590;8.866;2023-04-20T03:33:33;3.70;99.90
18291;DHT22;9271;48.590;8.866;2023-04-20T03:36:00;3.60;99.90
18291;DHT22;9271;48.590;8.866;2023-04-20T03:38:27;3.50;99.90
18291;DHT22;9271;48.590;8.866;2023-04-20T03:40:55;3.40;99.90
18291;DHT22;9271;48.590;8.866;2023-04-20T03:43:21;3.40;99.90
18291;DHT22;9271;48.590;8.866;2023-04-20T03:45:48;3.50;99.90
18291;DHT22;9271;48.590;8.866;2023-04-20T03:48:15;3.40;99.90
18291;DHT22;9271;48.590;8.866;2023-04-20T03:50:41;3.40;99.90
18291;DHT22;9271;48.590;8.866;2023-04-20T03:53:08;3.40;99.90
18291;DHT22;9271;48.590;8.866;2023-04-20T03:55:35;3.30;99.90
18291;DHT22;9271;48.590;8.866;2023-04-20T03:58:04;3.40;99.90
18291;DHT22;9271;48.590;8.866;2023-04-20T04:00:31;3.30;99.90
18291;DHT22;9271;48.590;8.866;2023-04-20T04:02:58;3.40;99.90
18291;DHT22;9271;48.590;8.866;2023-04-20T04:05:24;3.40;99.90
18291;DHT22;9271;48.590;8.866;2023-04-20T04:07:51;3.40;99.90
18291;DHT22;9271;48.590;8.866;2023-04-20T04:10:18;3.50;99.90
18291;DHT22;9271;48.590;8.866;2023-04-20T04:12:45;3.40;99.90
18291;DHT22;9271;48.590;8.866;2023-04-20T04:15:13;3.40;99.90
18291;DHT22;9271;48.590;8.866;2023-04-20T04:17:39;3.50;99.90
18291;DHT22;9271;48.590;8.866;2023-04-20T04:20:07;3.50;99.90
18291;DHT22;9271;48.590;8.866;2023-04-20T04:22:35;3.70;99.90
18291;DHT22;9271;48.590;8.866;2023-04-20T04:25:03;3.90;99.90
18291;DHT22;9271;48.590;8.866;2023-04-20T04:27:29;4.00;99.90
18291;DHT22;9271;48.590;8.866;2023-04-20T04:29:59;4.00;99.90
18291;DHT22;9271;48.590;8.866;2023-04-20T04:32:28;4.00;99.90
18291;DHT22;9271;48.590;8.866;2023-04-20T04:34:55;3.90;99.90
18291;DHT22;9271;48.590;8.866;2023-04-20T04:37:22;3.90;99.90
18291;DHT22;9271;48.590;8.866;2023-04-20T04:39:49;4.00;99.90
18291;DHT22;9271;48.590;8.866;2023-04-20T04:42:16;4.00;99.90
18291;DHT22;9271;48.590;8.866;2023-04-20T04:44:42;4.00;99.90
18291;DHT22;9271;48.590;8.866;2023-04-20T04:47:09;4.20;99.90
18291;DHT22;9271;48.590;8.866;2023-04-20T04:49:37;4.20;99.90
18291;DHT22;9271;48.590;8.866;2023-04-20T04:52:05;4.30;99.90
18291;DHT22;9271;48.590;8.866;2023-04-20T04:54:31;4.30;99.90
18291;DHT22;9271;48.590;8.866;2023-04-20T04:56:58;4.50;99.90
18291;DHT22;9271;48.590;8.866;2023-04-20T04:59:25;4.70;99.90
18291;DHT22;9271;48.590;8.866;2023-04-20T05:01:52;4.90;99.90
18291;DHT22;9271;48.590;8.866;2023-04-20T05:04:19;5.10;99.90
18291;DHT22;9271;48.590;8.866;2023-04-20T05:06:47;5.30;99.80
18291;DHT22;9271;48.590;8.866;2023-04-20T05:09:13;5.40;99.40
18291;DHT22;9271;48.590;8.866;2023-04-20T05:11:40;5.50;99.20
18291;DHT22;9271;48.590;8.866;2023-04-20T05:14:06;5.60;99.30
18291;DHT22;9271;48.590;8.866;2023-04-20T05:16:33;6.00;99.10
18291;DHT22;9271;48.590;8.866;2023-04-20T05:19:00;6.10;98.70
18291;DHT22;9271;48.590;8.866;2023-04-20T05:21:26;6.30;98.60
18291;DHT22;9271;48.590;8.866;2023-04-20T05:23:54;6.50;98.20
18291;DHT22;9271;48.590;8.866;2023-04-20T05:26:21;6.70;97.80
18291;DHT22;9271;48.590;8.866;2023-04-20T05:28:48;6.90;97.40
18291;DHT22;9271;48.590;8.866;2023-04-20T05:31:15;6.80;96.80
18291;DHT22;9271;48.590;8.866;2023-04-20T05:33:42;6.90;97.00
18291;DHT22;9271;48.590;8.866;2023-04-20T05:36:09;7.00;96.30
18291;DHT22;9271;48.590;8.866;2023-04-20T05:38:35;7.10;96.30
18291;DHT22;9271;48.590;8.866;2023-04-20T05:41:03;7.00;96.30
18291;DHT22;9271;48.590;8.866;2023-04-20T05:43:30;7.10;96.20
18291;DHT22;9271;48.590;8.866;2023-04-20T05:45:57;7.10;96.00
18291;DHT22;9271;48.590;8.866;2023-04-20T05:48:24;7.10;95.80
18291;DHT22;9271;48.590;8.866;2023-04-20T05:50:51;7.00;96.10
18291;DHT22;9271;48.590;8.866;2023-04-20T05:53:18;7.00;96.00
18291;DHT22;9271;48.590;8.866;2023-04-20T05:55:46;7.00;96.10
18291;DHT22;9271;48.590;8.866;2023-04-20T05:58:14;7.10;95.90
18291;DHT22;9271;48.590;8.866;2023-04-20T06:00:40;7.40;95.50
18291;DHT22;9271;48.590;8.866;2023-04-20T06:03:07;7.60;95.60
18291;DHT22;9271;48.590;8.866;2023-04-20T06:05:34;8.00;94.90
18291;DHT22;9271;48.590;8.866;2023-04-20T06:08:00;8.40;94.90
18291;DHT22;9271;48.590;8.866;2023-04-20T06:10:27;9.40;93.80
18291;DHT22;9271;48.590;8.866;2023-04-20T06:12:56;10.90;91.40
18291;DHT22;9271;48.590;8.866;2023-04-20T06:15:24;11.40;89.30
18291;DHT22;9271;48.590;8.866;2023-04-20T06:17:51;11.00;89.90
18291;DHT22;9271;48.590;8.866;2023-04-20T06:20:18;10.80;89.60
18291;DHT22;9271;48.590;8.866;2023-04-20T06:22:45;10.60;90.00
18291;DHT22;9271;48.590;8.866;2023-04-20T06:25:12;10.70;90.00
18291;DHT22;9271;48.590;8.866;2023-04-20T06:27:39;10.50;90.20
18291;DHT22;9271;48.590;8.866;2023-04-20T06:30:07;10.40;90.80
18291;DHT22;9271;48.590;8.866;2023-04-20T06:32:35;10.50;90.50
18291;DHT22;9271;48.590;8.866;2023-04-20T06:35:02;11.00;90.20
18291;DHT22;9271;48.590;8.866;2023-04-20T06:37:29;11.20;88.80
18291;DHT22;9271;48.590;8.866;2023-04-20T06:39:56;11.30;90.10
18291;DHT22;9271;48.590;8.866;2023-04-20T06:42:22;11.00;88.00
18291;DHT22;9271;48.590;8.866;2023-04-20T06:44:49;11.00;87.60
18291;DHT22;9271;48.590;8.866;2023-04-20T06:47:16;11.20;89.00
18291;DHT22;9271;48.590;8.866;2023-04-20T06:49:44;11.00;88.70
18291;DHT22;9271;48.590;8.866;2023-04-20T06:52:10;11.10;89.30
18291;DHT22;9271;48.590;8.866;2023-04-20T06:54:37;11.20;89.60
18291;DHT22;9271;48.590;8.866;2023-04-20T06:57:03;12.10;88.20
18291;DHT22;9271;48.590;8.866;2023-04-20T06:59:30;12.80;85.30
18291;DHT22;9271;48.590;8.866;2023-04-20T07:01:57;13.90;82.30
18291;DHT22;9271;48.590;8.866;2023-04-20T07:04:24;14.60;79.40
18291;DHT22;9271;48.590;8.866;2023-04-20T07:06:52;14.60;77.00
18291;DHT22;9271;48.590;8.866;2023-04-20T07:09:19;14.40;78.10
18291;DHT22;9271;48.590;8.866;2023-04-20T07:11:47;14.00;78.70
18291;DHT22;9271;48.590;8.866;2023-04-20T07:14:14;13.60;79.20
18291;DHT22;9271;48.590;8.866;2023-04-20T07:16:40;13.50;79.70
18291;DHT22;9271;48.590;8.866;2023-04-20T07:19:07;14.80;79.60
18291;DHT22;9271;48.590;8.866;2023-04-20T07:21:33;17.00;74.40
18291;DHT22;9271;48.590;8.866;2023-04-20T07:24:02;18.50;66.70
18291;DHT22;9271;48.590;8.866;2023-04-20T07:26:28;19.10;63.00
18291;DHT22;9271;48.590;8.866;2023-04-20T07:28:55;18.80;62.30
18291;DHT22;9271;48.590;8.866;2023-04-20T07:31:22;19.90;60.40
18291;DHT22;9271;48.590;8.866;2023-04-20T07:33:48;20.50;57.80
18291;DHT22;9271;48.590;8.866;2023-04-20T07:36:15;19.70;57.90
18291;DHT22;9271;48.590;8.866;2023-04-20T07:38:42;20.70;57.20
18291;DHT22;9271;48.590;8.866;2023-04-20T07:41:10;21.70;56.70
18291;DHT22;9271;48.590;8.866;2023-04-20T07:43:37;21.70;52.40
18291;DHT22;9271;48.590;8.866;2023-04-20T07:46:04;19.60;54.80
18291;DHT22;9271;48.590;8.866;2023-04-20T07:48:32;18.30;57.40
18291;DHT22;9271;48.590;8.866;2023-04-20T07:50:58;16.80;59.50
18291;DHT22;9271;48.590;8.866;2023-04-20T07:53:25;15.70;61.70
18291;DHT22;9271;48.590;8.866;2023-04-20T07:55:52;14.10;66.40
18291;DHT22;9271;48.590;8.866;2023-04-20T07:58:20;13.20;70.40
18291;DHT22;9271;48.590;8.866;2023-04-20T08:00:47;12.40;73.60
18291;DHT22;9271;48.590;8.866;2023-04-20T08:03:14;12.10;77.20
18291;DHT22;9271;48.590;8.866;2023-04-20T08:05:41;12.00;79.20
18291;DHT22;9271;48.590;8.866;2023-04-20T08:08:07;12.00;78.80
18291;DHT22;9271;48.590;8.866;2023-04-20T08:10:34;11.60;80.00
18291;DHT22;9271;48.590;8.866;2023-04-20T08:13:01;11.10;82.00
18291;DHT22;9271;48.590;8.866;2023-04-20T08:15:29;11.20;82.10
18291;DHT22;9271;48.590;8.866;2023-04-20T08:17:56;11.50;82.10
18291;DHT22;9271;48.590;8.866;2023-04-20T08:20:22;11.30;82.60
18291;DHT22;9271;48.590;8.866;2023-04-20T08:22:49;11.10;83.70
18291;DHT22;9271;48.590;8.866;2023-04-20T08:25:17;11.00;85.30
18291;DHT22;9271;48.590;8.866;2023-04-20T08:27:44;10.70;86.00
18291;DHT22;9271;48.590;8.866;2023-04-20T08:30:11;10.30;87.30
18291;DHT22;9271;48.590;8.866;2023-04-20T08:32:39;10.10;88.20
18291;DHT22;9271;48.590;8.866;2023-04-20T08:35:06;10.10;89.70
18291;DHT22;9271;48.590;8.866;2023-04-20T08:37:33;9.70;91.50
18291;DHT22;9271;48.590;8.866;2023-04-20T08:40:00;9.70;91.90
18291;DHT22;9271;48.590;8.866;2023-04-20T08:42:26;10.10;90.90
18291;DHT22;9271;48.590;8.866;2023-04-20T08:44:53;9.90;91.60
18291;DHT22;9271;48.590;8.866;2023-04-20T08:47:20;9.80;91.80
18291;DHT22;9271;48.590;8.866;2023-04-20T08:49:51;9.70;92.40
18291;DHT22;9271;48.590;8.866;2023-04-20T08:52:18;9.60;92.10
18291;DHT22;9271;48.590;8.866;2023-04-20T08:54:45;9.70;92.70
18291;DHT22;9271;48.590;8.866;2023-04-20T08:57:11;9.60;92.60
18291;DHT22;9271;48.590;8.866;2023-04-20T08:59:38;9.40;93.20
18291;DHT22;9271;48.590;8.866;2023-04-20T09:02:08;9.30;94.00
18291;DHT22;9271;48.590;8.866;2023-04-20T09:04:36;9.60;94.40
18291;DHT22;9271;48.590;8.866;2023-04-20T09:07:04;9.50;93.90
18291;DHT22;9271;48.590;8.866;2023-04-20T09:09:32;9.30;94.50
18291;DHT22;9271;48.590;8.866;2023-04-20T09:11:59;9.30;94.70
18291;DHT22;9271;48.590;8.866;2023-04-20T09:14:28;9.40;94.90
18291;DHT22;9271;48.590;8.866;2023-04-20T09:16:56;9.30;94.50
18291;DHT22;9271;48.590;8.866;2023-04-20T09:19:27;9.50;93.80
18291;DHT22;9271;48.590;8.866;2023-04-20T09:21:56;9.40;94.60
18291;DHT22;9271;48.590;8.866;2023-04-20T09:24:30;9.50;94.70
18291;DHT22;9271;48.590;8.866;2023-04-20T09:26:57;9.60;94.40
18291;DHT22;9271;48.590;8.866;2023-04-20T09:29:24;9.60;94.50
18291;DHT22;9271;48.590;8.866;2023-04-20T09:31:51;9.80;94.60
18291;DHT22;9271;48.590;8.866;2023-04-20T09:34:18;10.00;93.70
18291;DHT22;9271;48.590;8.866;2023-04-20T09:36:47;10.30;92.90
18291;DHT22;9271;48.590;8.866;2023-04-20T09:39:16;10.00;93.20
18291;DHT22;9271;48.590;8.866;2023-04-20T09:41:44;10.00;93.70
18291;DHT22;9271;48.590;8.866;2023-04-20T09:44:12;10.10;93.90
18291;DHT22;9271;48.590;8.866;2023-04-20T09:46:40;10.20;93.60
18291;DHT22;9271;48.590;8.866;2023-04-20T09:49:08;10.30;93.30
18291;DHT22;9271;48.590;8.866;2023-04-20T09:51:36;10.20;93.20
18291;DHT22;9271;48.590;8.866;2023-04-20T09:54:05;10.40;93.30
18291;DHT22;9271;48.590;8.866;2023-04-20T09:56:32;10.50;92.60
18291;DHT22;9271;48.590;8.866;2023-04-20T09:59:01;10.50;92.50
18291;DHT22;9271;48.590;8.866;2023-04-20T10:01:29;10.70;92.70
18291;DHT22;9271;48.590;8.866;2023-04-20T10:03:59;10.80;92.70
18291;DHT22;9271;48.590;8.866;2023-04-20T10:06:27;10.70;92.90
18291;DHT22;9271;48.590;8.866;2023-04-20T10:08:55;10.90;93.00
18291;DHT22;9271;48.590;8.866;2023-04-20T10:11:26;11.00;92.40
18291;DHT22;9271;48.590;8.866;2023-04-20T10:13:54;11.10;92.30
18291;DHT22;9271;48.590;8.866;2023-04-20T10:16:22;11.50;91.90
18291;DHT22;9271;48.590;8.866;2023-04-20T10:18:55;11.50;92.10
18291;DHT22;9271;48.590;8.866;2023-04-20T10:21:22;11.30;91.50
18291;DHT22;9271;48.590;8.866;2023-04-20T10:23:50;11.20;91.90
18291;DHT22;9271;48.590;8.866;2023-04-20T10:26:17;11.10;92.20
18291;DHT22;9271;48.590;8.866;2023-04-20T10:28:44;11.10;91.80
18291;DHT22;9271;48.590;8.866;2023-04-20T10:31:12;11.10;92.20
18291;DHT22;9271;48.590;8.866;2023-04-20T10:33:51;10.90;92.30
18291;DHT22;9271;48.590;8.866;2023-04-20T10:36:26;10.30;93.10
18291;DHT22;9271;48.590;8.866;2023-04-20T10:38:53;10.30;93.50
18291;DHT22;9271;48.590;8.866;2023-04-20T10:41:20;10.40;93.20
18291;DHT22;9271;48.590;8.866;2023-04-20T10:43:47;10.50;93.60
18291;DHT22;9271;48.590;8.866;2023-04-20T10:46:15;10.90;93.10
18291;DHT22;9271;48.590;8.866;2023-04-20T10:48:51;11.10;92.60
18291;DHT22;9271;48.590;8.866;2023-04-20T10:51:18;11.00;92.50
18291;DHT22;9271;48.590;8.866;2023-04-20T10:53:44;10.90;93.10
18291;DHT22;9271;48.590;8.866;2023-04-20T10:56:11;11.30;93.20
18291;DHT22;9271;48.590;8.866;2023-04-20T10:58:38;11.60;92.50
18291;DHT22;9271;48.590;8.866;2023-04-20T11:01:05;11.40;92.30
18291;DHT22;9271;48.590;8.866;2023-04-20T11:03:32;11.00;93.00
18291;DHT22;9271;48.590;8.866;2023-04-20T11:06:01;10.70;93.00
18291;DHT22;9271;48.590;8.866;2023-04-20T11:08:41;10.90;93.10
18291;DHT22;9271;48.590;8.866;2023-04-20T11:11:18;11.20;93.30
18291;DHT22;9271;48.590;8.866;2023-04-20T11:13:45;11.40;93.50
18291;DHT22;9271;48.590;8.866;2023-04-20T11:16:12;12.10;92.80
18291;DHT22;9271;48.590;8.866;2023-04-20T11:18:49;12.30;91.90
18291;DHT22;9271;48.590;8.866;2023-04-20T11:21:18;12.20;91.50
18291;DHT22;9271;48.590;8.866;2023-04-20T11:23:45;11.80;91.40
18291;DHT22;9271;48.590;8.866;2023-04-20T11:26:12;11.70;91.50
18291;DHT22;9271;48.590;8.866;2023-04-20T11:28:49;10.80;91.90
18291;DHT22;9271;48.590;8.866;2023-04-20T11:31:17;10.50;92.80
18291;DHT22;9271;48.590;8.866;2023-04-20T11:33:44;10.40;93.20
18291;DHT22;9271;48.590;8.866;2023-04-20T11:36:19;10.70;93.70
18291;DHT22;9271;48.590;8.866;2023-04-20T11:38:46;11.00;92.70
18291;DHT22;9271;48.590;8.866;2023-04-20T11:41:13;11.30;92.40
18291;DHT22;9271;48.590;8.866;2023-04-20T11:43:40;11.30;92.50
18291;DHT22;9271;48.590;8.866;2023-04-20T11:46:12;10.90;92.90
18291;DHT22;9271;48.590;8.866;2023-04-20T11:48:40;11.10;93.50
18291;DHT22;9271;48.590;8.866;2023-04-20T11:51:06;11.00;93.30
18291;DHT22;9271;48.590;8.866;2023-04-20T11:53:34;10.40;94.00
18291;DHT22;9271;48.590;8.866;2023-04-20T11:56:02;10.30;94.40
18291;DHT22;9271;48.590;8.866;2023-04-20T11:58:29;10.60;94.40
18291;DHT22;9271;48.590;8.866;2023-04-20T12:00:56;10.40;93.80
18291;DHT22;9271;48.590;8.866;2023-04-20T12:03:22;10.40;94.50
18291;DHT22;9271;48.590;8.866;2023-04-20T12:05:49;10.50;94.60
18291;DHT22;9271;48.590;8.866;2023-04-20T12:08:16;10.60;95.70
18291;DHT22;9271;48.590;8.866;2023-04-20T12:10:44;10.70;95.70
18291;DHT22;9271;48.590;8.866;2023-04-20T12:13:12;10.70;96.30
18291;DHT22;9271;48.590;8.866;2023-04-20T12:15:39;10.70;95.50
18291;DHT22;9271;48.590;8.866;2023-04-20T12:18:06;10.70;95.50
18291;DHT22;9271;48.590;8.866;2023-04-20T12:20:32;10.80;96.20
18291;DHT22;9271;48.590;8.866;2023-04-20T12:22:59;10.90;95.90
18291;DHT22;9271;48.590;8.866;2023-04-20T12:25:26;11.40;96.00
18291;DHT22;9271;48.590;8.866;2023-04-20T12:27:54;11.50;95.40
18291;DHT22;9271;48.590;8.866;2023-04-20T12:30:21;11.50;94.90
18291;DHT22;9271;48.590;8.866;2023-04-20T12:32:48;11.20;95.90
18291;DHT22;9271;48.590;8.866;2023-04-20T12:35:14;11.10;95.60
18291;DHT22;9271;48.590;8.866;2023-04-20T12:37:41;11.20;96.30
18291;DHT22;9271;48.590;8.866;2023-04-20T12:40:08;10.70;96.30
18291;DHT22;9271;48.590;8.866;2023-04-20T12:42:35;11.00;96.70
18291;DHT22;9271;48.590;8.866;2023-04-20T12:45:03;11.20;96.80
18291;DHT22;9271;48.590;8.866;2023-04-20T12:47:30;11.10;96.30
18291;DHT22;9271;48.590;8.866;2023-04-20T12:49:57;11.00;96.60
18291;DHT22;9271;48.590;8.866;2023-04-20T12:52:23;11.00;96.70
18291;DHT22;9271;48.590;8.866;2023-04-20T12:54:50;11.30;97.10
18291;DHT22;9271;48.590;8.866;2023-04-20T12:57:17;11.20;96.70
18291;DHT22;9271;48.590;8.866;2023-04-20T12:59:43;11.50;96.60
18291;DHT22;9271;48.590;8.866;2023-04-20T13:02:14;11.60;96.50
18291;DHT22;9271;48.590;8.866;2023-04-20T13:04:40;11.50;96.30
18291;DHT22;9271;48.590;8.866;2023-04-20T13:07:07;11.50;96.40
18291;DHT22;9271;48.590;8.866;2023-04-20T13:09:34;11.70;96.10
18291;DHT22;9271;48.590;8.866;2023-04-20T13:12:00;11.80;96.00
18291;DHT22;9271;48.590;8.866;2023-04-20T13:14:27;11.70;96.20
18291;DHT22;9271;48.590;8.866;2023-04-20T13:16:54;12.00;96.00
18291;DHT22;9271;48.590;8.866;2023-04-20T13:19:22;12.00;95.60
18291;DHT22;9271;48.590;8.866;2023-04-20T13:21:48;12.10;95.40
18291;DHT22;9271;48.590;8.866;2023-04-20T13:24:15;12.40;96.00
18291;DHT22;9271;48.590;8.866;2023-04-20T13:26:42;12.60;95.20
18291;DHT22;9271;48.590;8.866;2023-04-20T13:29:08;12.80;94.90
18291;DHT22;9271;48.590;8.866;2023-04-20T13:31:35;12.50;95.00
18291;DHT22;9271;48.590;8.866;2023-04-20T13:34:02;11.90;95.40
18291;DHT22;9271;48.590;8.866;2023-04-20T13:36:30;11.80;95.80
18291;DHT22;9271;48.590;8.866;2023-04-20T13:38:57;12.00;95.60
18291;DHT22;9271;48.590;8.866;2023-04-20T13:41:24;11.90;95.30
18291;DHT22;9271;48.590;8.866;2023-04-20T13:43:51;11.70;95.60
18291;DHT22;9271;48.590;8.866;2023-04-20T13:46:17;11.60;96.10
18291;DHT22;9271;48.590;8.866;2023-04-20T13:48:45;11.50;96.50
18291;DHT22;9271;48.590;8.866;2023-04-20T13:51:11;11.70;96.10
18291;DHT22;9271;48.590;8.866;2023-04-20T13:53:39;11.70;96.10
18291;DHT22;9271;48.590;8.866;2023-04-20T13:56:06;11.40;96.30
18291;DHT22;9271;48.590;8.866;2023-04-20T13:58:33;11.50;96.00
18291;DHT22;9271;48.590;8.866;2023-04-20T14:01:00;11.50;96.20
18291;DHT22;9271;48.590;8.866;2023-04-20T14:03:26;11.50;96.70
18291;DHT22;9271;48.590;8.866;2023-04-20T14:05:53;11.30;96.70
18291;DHT22;9271;48.590;8.866;2023-04-20T14:08:20;11.30;97.10
18291;DHT22;9271;48.590;8.866;2023-04-20T14:10:49;11.30;96.90
18291;DHT22;9271;48.590;8.866;2023-04-20T14:13:15;11.20;97.10
18291;DHT22;9271;48.590;8.866;2023-04-20T14:15:42;11.20;97.00
18291;DHT22;9271;48.590;8.866;2023-04-20T14:18:08;11.10;97.20
18291;DHT22;9271;48.590;8.866;2023-04-20T14:20:35;11.10;97.20
18291;DHT22;9271;48.590;8.866;2023-04-20T14:23:02;11.10;97.00
18291;DHT22;9271;48.590;8.866;2023-04-20T14:25:29;11.10;97.40
18291;DHT22;9271;48.590;8.866;2023-04-20T14:27:57;11.10;97.50
18291;DHT22;9271;48.590;8.866;2023-04-20T14:30:23;11.10;97.80
18291;DHT22;9271;48.590;8.866;2023-04-20T14:32:54;11.00;97.70
18291;DHT22;9271;48.590;8.866;2023-04-20T14:35:21;11.10;97.90
18291;DHT22;9271;48.590;8.866;2023-04-20T14:37:48;10.90;98.20
18291;DHT22;9271;48.590;8.866;2023-04-20T14:40:15;10.80;97.70
18291;DHT22;9271;48.590;8.866;2023-04-20T14:42:41;10.90;97.70
18291;DHT22;9271;48.590;8.866;2023-04-20T14:45:10;11.00;97.70
18291;DHT22;9271;48.590;8.866;2023-04-20T14:47:37;11.00;97.70
18291;DHT22;9271;48.590;8.866;2023-04-20T14:50:05;11.10;97.70
18291;DHT22;9271;48.590;8.866;2023-04-20T14:52:31;11.10;97.80
18291;DHT22;9271;48.590;8.866;2023-04-20T14:54:58;11.10;97.80
18291;DHT22;9271;48.590;8.866;2023-04-20T14:57:25;11.10;97.90
18291;DHT22;9271;48.590;8.866;2023-04-20T14:59:51;11.10;98.00
18291;DHT22;9271;48.590;8.866;2023-04-20T15:02:19;11.10;98.10
18291;DHT22;9271;48.590;8.866;2023-04-20T15:04:46;10.90;98.30
18291;DHT22;9271;48.590;8.866;2023-04-20T15:07:12;10.70;98.20
18291;DHT22;9271;48.590;8.866;2023-04-20T15:09:39;10.70;98.00
18291;DHT22;9271;48.590;8.866;2023-04-20T15:12:06;10.80;98.10
18291;DHT22;9271;48.590;8.866;2023-04-20T15:14:33;10.60;98.10
18291;DHT22;9271;48.590;8.866;2023-04-20T15:16:59;10.20;98.40
18291;DHT22;9271;48.590;8.866;2023-04-20T15:19:27;10.20;98.80
18291;DHT22;9271;48.590;8.866;2023-04-20T15:21:54;10.40;98.90
18291;DHT22;9271;48.590;8.866;2023-04-20T15:24:21;10.60;98.70
18291;DHT22;9271;48.590;8.866;2023-04-20T15:26:47;10.70;98.10
18291;DHT22;9271;48.590;8.866;2023-04-20T15:29:14;10.70;98.80
18291;DHT22;9271;48.590;8.866;2023-04-20T15:31:40;10.60;98.70
18291;DHT22;9271;48.590;8.866;2023-04-20T15:34:09;10.50;98.90
18291;DHT22;9271;48.590;8.866;2023-04-20T15:36:40;10.50;99.00
18291;DHT22;9271;48.590;8.866;2023-04-20T15:39:07;10.60;99.10
18291;DHT22;9271;48.590;8.866;2023-04-20T15:41:35;10.50;99.50
18291;DHT22;9271;48.590;8.866;2023-04-20T15:44:01;10.60;99.40
18291;DHT22;9271;48.590;8.866;2023-04-20T15:46:28;10.70;99.40
18291;DHT22;9271;48.590;8.866;2023-04-20T15:48:55;10.80;99.40
18291;DHT22;9271;48.590;8.866;2023-04-20T15:51:21;10.60;99.60
18291;DHT22;9271;48.590;8.866;2023-04-20T15:53:50;10.40;99.50